createdAt,value
2023-04-26T00:00:09.110Z,95810.91
2023-04-26T00:01:10.936Z,95807.38
2023-04-26T00:02:12.885Z,95804.66
2023-04-26T00:03:14.683Z,95806.78
2023-04-26T00:04:16.773Z,95804.06
2023-04-26T00:05:19.590Z,95794.31
2023-04-26T00:06:21.350Z,95801.03
2023-04-26T00:07:24.833Z,95805.75
2023-04-26T00:08:26.534Z,95799.13
2023-04-26T00:09:28.195Z,95803.66
2023-04-26T00:10:30.113Z,95802.16
2023-04-26T00:11:31.754Z,95802.56
2023-04-26T00:12:33.350Z,95811.31
2023-04-26T00:13:34.940Z,95800.53
2023-04-26T00:14:36.505Z,95795.63
2023-04-26T00:15:38.079Z,95792.28
2023-04-26T00:16:39.708Z,95798.09
2023-04-26T00:17:42.724Z,95790.88
2023-04-26T00:18:46.233Z,95802.72
2023-04-26T00:19:47.866Z,95791.69
2023-04-26T00:20:49.457Z,95795.22
2023-04-26T00:21:51.020Z,95799.41
2023-04-26T00:22:53.148Z,95791.16
2023-04-26T00:23:54.846Z,95789.13
2023-04-26T00:24:56.430Z,95787.72
2023-04-26T00:25:58.067Z,95794.84
2023-04-26T00:27:00.584Z,95786.63
2023-04-26T00:28:02.450Z,95791.84
2023-04-26T00:29:04.692Z,95793.09
2023-04-26T00:30:06.960Z,95801.75
2023-04-26T00:31:14.518Z,95797.00
2023-04-26T00:32:16.591Z,95796.47
2023-04-26T00:33:18.183Z,95790.94
2023-04-26T00:34:19.859Z,95793.56
2023-04-26T00:35:21.630Z,95787.81
2023-04-26T00:36:23.235Z,95795.00
2023-04-26T00:37:24.960Z,95796.69
2023-04-26T00:38:26.593Z,95801.22
2023-04-26T00:39:28.565Z,95805.06
2023-04-26T00:40:30.925Z,95803.94
2023-04-26T00:41:32.536Z,95804.53
2023-04-26T00:42:34.141Z,95797.91
2023-04-26T00:43:35.877Z,95796.19
2023-04-26T00:44:39.986Z,95793.47
2023-04-26T00:45:42.041Z,95793.88
2023-04-26T00:46:43.616Z,95795.09
2023-04-26T00:47:45.355Z,95792.78
2023-04-26T00:48:47.366Z,95786.84
2023-04-26T00:49:49.147Z,95795.47
2023-04-26T00:50:50.933Z,95795.78
2023-04-26T00:51:52.950Z,95784.50
2023-04-26T00:52:55.901Z,95793.47
2023-04-26T00:53:57.587Z,95800.13
2023-04-26T00:54:59.304Z,95803.44
2023-04-26T00:56:01.379Z,95793.50
2023-04-26T00:57:03.511Z,95796.22
2023-04-26T00:58:05.059Z,95802.16
2023-04-26T00:59:06.662Z,95802.03
2023-04-26T01:00:16.354Z,95803.25
2023-04-26T01:01:17.987Z,95813.31
2023-04-26T01:02:19.769Z,95808.19
2023-04-26T01:03:21.840Z,95807.66
2023-04-26T01:04:27.501Z,95805.34
2023-04-26T01:05:30.627Z,95803.56
2023-04-26T01:06:34.966Z,95817.72
2023-04-26T01:07:37.375Z,95808.88
2023-04-26T01:08:38.950Z,95799.75
2023-04-26T01:09:40.652Z,95817.00
2023-04-26T01:10:42.212Z,95808.59
2023-04-26T01:11:44.452Z,95805.78
2023-04-26T01:12:46.687Z,95811.38
2023-04-26T01:13:48.836Z,95808.09
2023-04-26T01:14:51.988Z,95806.97
2023-04-26T01:15:54.193Z,95810.28
2023-04-26T01:16:57.479Z,95800.84
2023-04-26T01:17:59.785Z,95813.00
2023-04-26T01:19:09.489Z,95810.81
2023-04-26T01:20:13.908Z,95814.13
2023-04-26T01:21:21.918Z,95810.81
2023-04-26T01:22:23.598Z,95815.72
2023-04-26T01:23:25.383Z,95804.06
2023-04-26T01:24:27.014Z,95812.59
2023-04-26T01:25:28.840Z,95805.16
2023-04-26T01:26:31.120Z,95805.06
2023-04-26T01:27:32.636Z,95809.38
2023-04-26T01:28:34.303Z,95814.91
2023-04-26T01:29:39.829Z,95811.59
2023-04-26T01:32:12.178Z,95813.63
2023-04-26T01:33:15.849Z,95815.22
2023-04-26T01:34:17.765Z,95813.41
2023-04-26T01:35:21.818Z,95809.59
2023-04-26T01:36:23.547Z,95814.19
2023-04-26T01:37:27.203Z,95818.22
2023-04-26T01:38:28.899Z,95811.28
2023-04-26T01:39:31.053Z,95807.16
2023-04-26T01:40:32.990Z,95810.47
2023-04-26T01:41:35.468Z,95811.09
2023-04-26T01:42:37.290Z,95814.81
2023-04-26T01:43:38.990Z,95801.75
2023-04-26T01:44:40.749Z,95808.06
2023-04-26T01:45:42.430Z,95811.19
2023-04-26T01:47:02.950Z,95808.97
2023-04-26T01:48:04.910Z,95811.28
2023-04-26T01:49:07.419Z,95815.63
2023-04-26T01:50:10.209Z,95811.50
2023-04-26T01:51:11.877Z,95810.09
2023-04-26T01:52:14.312Z,95810.22
2023-04-26T01:53:16.016Z,95805.78
2023-04-26T01:54:17.726Z,95802.97
2023-04-26T01:55:19.571Z,95809.69
2023-04-26T01:56:24.089Z,95812.28
2023-04-26T01:57:25.827Z,95807.75
2023-04-26T01:58:27.541Z,95804.97
2023-04-26T01:59:29.319Z,95818.81
2023-04-26T02:00:33.904Z,95819.13
2023-04-26T02:01:35.840Z,95814.78
2023-04-26T02:02:37.878Z,95813.97
2023-04-26T02:03:39.770Z,95815.59
2023-04-26T02:04:41.686Z,95808.38
2023-04-26T02:05:43.376Z,95814.38
2023-04-26T02:06:45.161Z,95811.19
2023-04-26T02:07:46.833Z,95807.38
2023-04-26T02:08:49.545Z,95813.22
2023-04-26T02:09:51.600Z,95815.19
2023-04-26T02:10:53.473Z,95805.66
2023-04-26T02:11:55.255Z,95807.56
2023-04-26T02:13:00.971Z,95805.94
2023-04-26T02:14:02.925Z,95805.84
2023-04-26T02:15:06.277Z,95812.28
2023-04-26T02:16:09.388Z,95804.97
2023-04-26T02:17:11.814Z,95812.81
2023-04-26T02:18:13.679Z,95811.47
2023-04-26T02:19:16.624Z,95813.38
2023-04-26T02:20:18.350Z,95809.19
2023-04-26T02:21:24.436Z,95808.78
2023-04-26T02:22:27.077Z,95810.78
2023-04-26T02:23:31.943Z,95815.81
2023-04-26T02:24:34.389Z,95807.06
2023-04-26T02:25:38.090Z,95815.59
2023-04-26T02:26:40.142Z,95807.47
2023-04-26T02:27:42.251Z,95807.28
2023-04-26T02:28:44.166Z,95805.03
2023-04-26T02:29:46.841Z,95807.56
2023-04-26T02:30:48.776Z,95812.06
2023-04-26T02:31:50.656Z,95809.06
2023-04-26T02:32:54.802Z,95805.72
2023-04-26T02:33:56.792Z,95808.63
2023-04-26T02:34:58.975Z,95806.84
2023-04-26T02:36:07.343Z,95803.53
2023-04-26T02:37:09.706Z,95796.69
2023-04-26T02:38:11.625Z,95797.59
2023-04-26T02:39:13.508Z,95802.63
2023-04-26T02:40:16.173Z,95803.72
2023-04-26T02:41:18.031Z,95803.81
2023-04-26T02:42:19.779Z,95806.31
2023-04-26T02:43:22.161Z,95804.00
2023-04-26T02:44:24.311Z,95804.63
2023-04-26T02:45:26.160Z,95808.63
2023-04-26T02:46:28.469Z,95800.59
2023-04-26T02:47:30.405Z,95806.19
2023-04-26T02:48:32.213Z,95806.81
2023-04-26T02:49:34.061Z,95805.84
2023-04-26T02:50:36.420Z,95803.13
2023-04-26T02:51:38.602Z,95792.38
2023-04-26T02:52:40.719Z,95789.94
2023-04-26T02:53:42.565Z,95792.34
2023-04-26T02:54:44.412Z,95800.59
2023-04-26T02:55:46.794Z,95802.28
2023-04-26T02:56:48.629Z,95782.50
2023-04-26T02:57:50.513Z,95807.13
2023-04-26T02:58:52.675Z,95796.38
2023-04-26T02:59:55.725Z,95802.28
2023-04-26T03:01:01.055Z,95796.28
2023-04-26T03:02:03.555Z,95809.13
2023-04-26T03:03:05.720Z,95798.34
2023-04-26T03:04:08.139Z,95799.84
2023-04-26T03:05:11.375Z,95796.09
2023-04-26T03:06:13.153Z,95807.13
2023-04-26T03:07:15.124Z,95797.63
2023-04-26T03:08:17.412Z,95798.94
2023-04-26T03:09:20.056Z,95802.09
2023-04-26T03:10:22.193Z,95798.75
2023-04-26T03:11:24.280Z,95795.94
2023-04-26T03:12:26.823Z,95800.75
2023-04-26T03:13:28.677Z,95790.50
2023-04-26T03:14:31.775Z,95797.25
2023-04-26T03:15:34.014Z,95801.69
2023-04-26T03:16:42.469Z,95794.47
2023-04-26T03:17:44.778Z,95804.41
2023-04-26T03:18:46.818Z,95805.44
2023-04-26T03:19:49.204Z,95795.75
2023-04-26T03:20:51.552Z,95797.84
2023-04-26T03:21:53.409Z,95798.28
2023-04-26T03:22:55.363Z,95798.47
2023-04-26T03:23:57.198Z,95808.16
2023-04-26T03:24:59.160Z,95801.00
2023-04-26T03:26:02.649Z,95794.06
2023-04-26T03:27:04.610Z,95799.28
2023-04-26T03:28:06.947Z,95798.34
2023-04-26T03:29:09.312Z,95800.88
2023-04-26T03:30:11.651Z,95793.84
2023-04-26T03:31:14.574Z,95792.63
2023-04-26T03:32:16.736Z,95802.44
2023-04-26T03:33:18.663Z,95794.13
2023-04-26T03:34:20.945Z,95798.06
2023-04-26T03:35:22.835Z,95802.91
2023-04-26T03:36:24.966Z,95795.06
2023-04-26T03:37:26.952Z,95791.94
2023-04-26T03:38:34.967Z,95798.06
2023-04-26T03:39:37.031Z,95807.13
2023-04-26T03:40:38.874Z,95812.31
2023-04-26T03:41:41.066Z,95812.00
2023-04-26T03:42:46.141Z,95809.16
2023-04-26T03:43:47.878Z,95812.28
2023-04-26T03:44:49.758Z,95816.19
2023-04-26T03:45:51.684Z,95814.06
2023-04-26T03:46:53.690Z,95814.91
2023-04-26T03:47:56.816Z,95816.69
2023-04-26T03:48:58.606Z,95823.03
2023-04-26T03:50:01.687Z,95817.72
2023-04-26T03:51:03.926Z,95822.63
2023-04-26T03:52:05.793Z,95816.19
2023-04-26T03:53:08.156Z,95824.75
2023-04-26T03:54:11.234Z,95817.72
2023-04-26T03:55:13.318Z,95818.28
2023-04-26T03:56:15.245Z,95818.22
2023-04-26T03:57:18.101Z,95823.94
2023-04-26T03:58:20.894Z,95823.66
2023-04-26T03:59:22.801Z,95820.03
2023-04-26T04:00:28.612Z,95827.38
2023-04-26T04:01:30.439Z,95817.13
2023-04-26T04:02:33.724Z,95828.09
2023-04-26T04:03:40.055Z,95818.34
2023-04-26T04:04:43.172Z,95824.69
2023-04-26T04:05:45.216Z,95822.88
2023-04-26T04:06:48.224Z,95830.06
2023-04-26T04:07:50.054Z,95831.09
2023-04-26T04:08:52.861Z,95835.22
2023-04-26T04:09:54.839Z,95832.19
2023-04-26T04:10:56.986Z,95829.56
2023-04-26T04:11:59.079Z,95829.25
2023-04-26T04:13:01.520Z,95831.84
2023-04-26T04:14:03.789Z,95832.47
2023-04-26T04:15:06.003Z,95837.94
2023-04-26T04:16:10.326Z,95830.63
2023-04-26T04:17:12.155Z,95835.47
2023-04-26T04:18:14.406Z,95831.72
2023-04-26T04:19:16.899Z,95832.78
2023-04-26T04:20:20.640Z,95837.78
2023-04-26T04:21:22.646Z,95846.78
2023-04-26T04:22:24.916Z,95846.44
2023-04-26T04:23:27.500Z,95844.88
2023-04-26T04:24:30.032Z,95841.09
2023-04-26T04:25:31.869Z,95844.75
2023-04-26T04:26:37.045Z,95849.81
2023-04-26T04:27:38.937Z,95845.91
2023-04-26T04:28:45.121Z,95843.72
2023-04-26T04:29:47.157Z,95841.81
2023-04-26T04:30:48.962Z,95849.66
2023-04-26T04:31:51.369Z,95846.63
2023-04-26T04:32:53.773Z,95844.66
2023-04-26T04:33:55.576Z,95844.44
2023-04-26T04:34:57.360Z,95838.72
2023-04-26T04:36:00.535Z,95842.31
2023-04-26T04:37:04.393Z,95839.91
2023-04-26T04:38:06.871Z,95844.97
2023-04-26T04:39:13.665Z,95852.06
2023-04-26T04:40:16.056Z,95853.66
2023-04-26T04:41:23.824Z,95852.50
2023-04-26T04:42:27.327Z,95852.00
2023-04-26T04:43:31.103Z,95858.41
2023-04-26T04:44:33.036Z,95856.16
2023-04-26T04:45:35.686Z,95852.69
2023-04-26T04:46:38.417Z,95855.41
2023-04-26T04:47:40.553Z,95851.88
2023-04-26T04:48:43.331Z,95852.88
2023-04-26T04:49:45.462Z,95859.44
2023-04-26T04:50:47.666Z,95854.28
2023-04-26T04:51:49.550Z,95854.06
2023-04-26T04:52:51.520Z,95849.66
2023-04-26T04:53:53.579Z,95848.84
2023-04-26T04:54:56.168Z,95851.88
2023-04-26T04:55:58.112Z,95846.59
2023-04-26T04:57:00.183Z,95857.16
2023-04-26T04:58:03.833Z,95853.47
2023-04-26T04:59:10.410Z,95860.50
2023-04-26T05:00:13.105Z,95857.69
2023-04-26T05:01:37.078Z,95857.59
2023-04-26T05:02:42.011Z,95853.72
2023-04-26T05:03:43.962Z,95858.41
2023-04-26T05:04:46.389Z,95856.31
2023-04-26T05:05:48.411Z,95859.53
2023-04-26T05:06:51.226Z,95851.91
2023-04-26T05:07:53.561Z,95850.38
2023-04-26T05:08:56.343Z,95857.63
2023-04-26T05:09:58.600Z,95853.78
2023-04-26T05:11:00.775Z,95855.59
2023-04-26T05:12:03.532Z,95855.78
2023-04-26T05:13:06.273Z,95854.16
2023-04-26T05:14:08.626Z,95856.81
2023-04-26T05:15:10.732Z,95860.16
2023-04-26T05:16:12.818Z,95855.84
2023-04-26T05:17:15.165Z,95853.00
2023-04-26T05:18:17.105Z,95862.28
2023-04-26T05:19:19.327Z,95857.94
2023-04-26T05:20:21.979Z,95865.50
2023-04-26T05:21:24.483Z,95866.81
2023-04-26T05:22:27.358Z,95853.09
2023-04-26T05:23:29.294Z,95856.00
2023-04-26T05:24:31.659Z,95864.97
2023-04-26T05:25:37.359Z,95855.13
2023-04-26T05:26:54.022Z,95864.75
2023-04-26T05:28:12.874Z,95858.78
2023-04-26T05:29:31.592Z,95858.28
2023-04-26T05:30:56.750Z,95861.19
2023-04-26T05:32:11.574Z,95864.31
2023-04-26T05:33:16.279Z,95862.66
2023-04-26T05:34:24.402Z,95863.16
2023-04-26T05:35:31.197Z,95854.94
2023-04-26T05:36:32.889Z,95853.66
2023-04-26T05:37:35.823Z,95858.44
2023-04-26T05:38:38.151Z,95863.00
2023-04-26T05:39:40.382Z,95862.84
2023-04-26T05:40:42.829Z,95861.38
2023-04-26T05:41:45.523Z,95859.31
2023-04-26T05:42:47.869Z,95863.81
2023-04-26T05:43:49.736Z,95864.75
2023-04-26T05:44:51.491Z,95866.38
2023-04-26T05:45:59.183Z,95865.41
2023-04-26T05:47:01.902Z,95876.78
2023-04-26T05:48:03.764Z,95874.63
2023-04-26T05:49:05.726Z,95872.28
2023-04-26T05:50:09.063Z,95878.03
2023-04-26T05:51:10.824Z,95878.84
2023-04-26T05:52:12.569Z,95882.47
2023-04-26T05:53:14.488Z,95881.91
2023-04-26T05:54:16.363Z,95887.22
2023-04-26T05:55:20.219Z,95882.28
2023-04-26T05:56:24.157Z,95887.69
2023-04-26T05:57:26.254Z,95887.84
2023-04-26T05:58:28.433Z,95897.44
2023-04-26T05:59:33.058Z,95891.75
2023-04-26T06:00:35.782Z,95893.66
2023-04-26T06:01:37.496Z,95894.78
2023-04-26T06:02:39.544Z,95893.47
2023-04-26T06:03:46.939Z,95888.34
2023-04-26T06:04:51.789Z,95893.09
2023-04-26T06:05:53.832Z,95888.91
2023-04-26T06:06:58.267Z,95886.19
2023-04-26T06:08:01.496Z,95887.09
2023-04-26T06:09:04.680Z,95885.56
2023-04-26T06:10:06.658Z,95888.16
2023-04-26T06:11:09.133Z,95879.16
2023-04-26T06:12:11.199Z,95889.38
2023-04-26T06:13:16.173Z,95885.06
2023-04-26T06:14:29.597Z,95889.81
2023-04-26T06:15:34.258Z,95888.84
2023-04-26T06:16:43.733Z,95887.13
2023-04-26T06:17:45.864Z,95890.38
2023-04-26T06:18:47.771Z,95891.94
2023-04-26T06:19:49.596Z,95884.53
2023-04-26T06:20:51.748Z,95894.44
2023-04-26T06:21:55.627Z,95890.25
2023-04-26T06:22:57.537Z,95889.63
2023-04-26T06:23:59.388Z,95889.81
2023-04-26T06:25:03.163Z,95887.16
2023-04-26T06:26:05.460Z,95893.81
2023-04-26T06:27:07.351Z,95890.56
2023-04-26T06:28:11.858Z,95890.69
2023-04-26T06:29:13.715Z,95887.56
2023-04-26T06:30:16.003Z,95896.81
2023-04-26T06:31:22.887Z,95895.53
2023-04-26T06:32:25.067Z,95898.25
2023-04-26T06:33:26.873Z,95896.88
2023-04-26T06:34:28.750Z,95892.91
2023-04-26T06:35:31.492Z,95896.13
2023-04-26T06:36:33.862Z,95904.28
2023-04-26T06:37:37.228Z,95894.28
2023-04-26T06:38:39.135Z,95892.53
2023-04-26T06:39:41.652Z,95887.88
2023-04-26T06:40:43.623Z,95892.69
2023-04-26T06:41:45.707Z,95890.59
2023-04-26T06:42:55.215Z,95898.91
2023-04-26T06:44:07.944Z,95890.25
2023-04-26T06:45:10.591Z,95898.94
2023-04-26T06:46:13.131Z,95895.91
2023-04-26T06:47:15.054Z,95898.16
2023-04-26T06:48:17.118Z,95900.78
2023-04-26T06:49:20.975Z,95906.88
2023-04-26T06:50:22.825Z,95900.06
2023-04-26T06:51:24.504Z,95904.22
2023-04-26T06:52:26.909Z,95909.03
2023-04-26T06:53:28.556Z,95905.69
2023-04-26T06:54:30.721Z,95900.72
2023-04-26T06:55:33.598Z,95902.13
2023-04-26T06:56:36.370Z,95907.00
2023-04-26T06:57:38.114Z,95899.91
2023-04-26T06:58:45.067Z,95902.16
2023-04-26T06:59:46.933Z,95901.41
2023-04-26T07:00:48.900Z,95900.53
2023-04-26T07:01:51.235Z,95900.91
2023-04-26T07:02:53.615Z,95897.13
2023-04-26T07:03:56.605Z,95900.13
2023-04-26T07:04:59.567Z,95900.22
2023-04-26T07:06:01.838Z,95906.06
2023-04-26T07:07:03.967Z,95901.09
2023-04-26T07:08:06.079Z,95900.59
2023-04-26T07:09:08.646Z,95901.28
2023-04-26T07:10:11.512Z,95904.38
2023-04-26T07:11:13.611Z,95900.97
2023-04-26T07:12:15.419Z,95902.53
2023-04-26T07:13:17.133Z,95904.09
2023-04-26T07:14:19.097Z,95897.34
2023-04-26T07:15:20.967Z,95901.47
2023-04-26T07:16:23.028Z,95899.16
2023-04-26T07:17:25.090Z,95899.91
2023-04-26T07:18:26.938Z,95894.19
2023-04-26T07:19:28.614Z,95899.78
2023-04-26T07:20:30.365Z,95911.28
2023-04-26T07:21:32.178Z,95904.78
2023-04-26T07:22:34.061Z,95899.16
2023-04-26T07:23:36.564Z,95909.78
2023-04-26T07:24:38.276Z,95906.41
2023-04-26T07:25:40.001Z,95901.69
2023-04-26T07:26:41.880Z,95907.47
2023-04-26T07:27:43.749Z,95904.13
2023-04-26T07:28:45.658Z,95900.47
2023-04-26T07:30:30.883Z,95898.44
2023-04-26T07:32:02.237Z,95905.84
2023-04-26T07:33:14.585Z,95895.41
2023-04-26T07:34:20.452Z,95905.09
2023-04-26T07:35:34.945Z,95909.50
2023-04-26T07:36:41.063Z,95908.81
2023-04-26T07:38:20.909Z,95901.38
2023-04-26T07:39:26.024Z,95909.59
2023-04-26T07:40:32.714Z,95917.34
2023-04-26T07:42:10.268Z,95905.50
2023-04-26T07:43:21.986Z,95918.72
2023-04-26T07:46:14.061Z,95918.97
2023-04-26T07:47:22.386Z,95915.22
2023-04-26T07:48:37.265Z,95922.72
2023-04-26T07:50:07.174Z,95919.41
2023-04-26T07:51:12.820Z,95913.31
2023-04-26T07:52:20.810Z,95908.00
2023-04-26T07:53:28.742Z,95916.06
2023-04-26T07:54:54.827Z,95916.97
2023-04-26T07:55:57.176Z,95905.97
2023-04-26T07:56:58.966Z,95909.66
2023-04-26T07:58:01.018Z,95914.44
2023-04-26T07:59:02.922Z,95914.19
2023-04-26T08:00:24.001Z,95909.31
2023-04-26T08:01:32.902Z,95901.63
2023-04-26T08:02:44.541Z,95908.06
2023-04-26T08:03:47.597Z,95902.13
2023-04-26T08:04:52.704Z,95903.75
2023-04-26T08:05:56.616Z,95903.91
2023-04-26T08:06:58.711Z,95906.41
2023-04-26T08:08:03.243Z,95902.59
2023-04-26T08:09:05.506Z,95907.13
2023-04-26T08:10:08.559Z,95905.63
2023-04-26T08:11:10.891Z,95902.75
2023-04-26T08:12:12.767Z,95897.81
2023-04-26T08:13:14.778Z,95896.41
2023-04-26T08:14:16.685Z,95895.19
2023-04-26T08:15:18.545Z,95897.41
2023-04-26T08:16:21.939Z,95903.22
2023-04-26T08:17:23.761Z,95899.56
2023-04-26T08:18:25.887Z,95890.50
2023-04-26T08:19:31.092Z,95896.31
2023-04-26T08:20:32.868Z,95900.84
2023-04-26T08:21:34.536Z,95896.97
2023-04-26T08:22:36.494Z,95893.13
2023-04-26T08:23:38.222Z,95889.56
2023-04-26T08:24:40.408Z,95890.41
2023-04-26T08:25:43.568Z,95891.78
2023-04-26T08:26:45.335Z,95886.69
2023-04-26T08:27:47.193Z,95886.97
2023-04-26T08:28:48.950Z,95895.16
2023-04-26T08:29:51.211Z,95888.00
2023-04-26T08:30:53.071Z,95887.75
2023-04-26T08:31:55.063Z,95890.72
2023-04-26T08:32:57.196Z,95887.41
2023-04-26T08:33:59.007Z,95890.97
2023-04-26T08:35:01.097Z,95893.66
2023-04-26T08:36:02.966Z,95891.00
2023-04-26T08:37:05.422Z,95893.88
2023-04-26T08:38:07.303Z,95898.63
2023-04-26T08:39:09.524Z,95900.94
2023-04-26T08:40:11.449Z,95902.25
2023-04-26T08:41:16.859Z,95887.22
2023-04-26T08:42:18.551Z,95900.28
2023-04-26T08:43:20.621Z,95894.66
2023-04-26T08:44:26.713Z,95895.94
2023-04-26T08:45:28.445Z,95898.09
2023-04-26T08:46:34.763Z,95899.47
2023-04-26T08:48:18.650Z,95898.13
2023-04-26T08:49:53.169Z,95898.94
2023-04-26T08:50:56.538Z,95897.50
2023-04-26T08:51:58.743Z,95902.88
2023-04-26T08:53:00.465Z,95898.81
2023-04-26T08:54:04.935Z,95899.16
2023-04-26T08:55:09.350Z,95894.69
2023-04-26T08:56:12.529Z,95903.41
2023-04-26T08:57:14.396Z,95899.59
2023-04-26T08:58:17.795Z,95908.88
2023-04-26T08:59:19.851Z,95896.94
2023-04-26T09:00:23.134Z,95901.94
2023-04-26T09:01:26.260Z,95901.75
2023-04-26T09:02:28.493Z,95901.44
2023-04-26T09:03:30.988Z,95904.78
2023-04-26T09:04:33.672Z,95905.72
2023-04-26T09:05:35.649Z,95902.41
2023-04-26T09:06:38.010Z,95898.69
2023-04-26T09:07:44.486Z,95903.59
2023-04-26T09:08:47.044Z,95889.59
2023-04-26T09:09:53.230Z,95896.00
2023-04-26T09:10:54.982Z,95895.06
2023-04-26T09:11:59.944Z,95899.94
2023-04-26T09:13:01.650Z,95903.03
2023-04-26T09:14:03.419Z,95903.09
2023-04-26T09:15:07.408Z,95902.78
2023-04-26T09:16:09.272Z,95906.03
2023-04-26T09:17:26.221Z,95905.28
2023-04-26T09:18:28.112Z,95906.81
2023-04-26T09:19:44.941Z,95904.56
2023-04-26T09:20:47.426Z,95899.84
2023-04-26T09:21:49.273Z,95901.75
2023-04-26T09:22:53.055Z,95903.41
2023-04-26T09:23:58.924Z,95895.97
2023-04-26T09:25:01.156Z,95905.94
2023-04-26T09:26:19.671Z,95900.56
2023-04-26T09:27:22.113Z,95908.13
2023-04-26T09:28:26.278Z,95910.75
2023-04-26T09:29:28.028Z,95904.38
2023-04-26T09:30:30.822Z,95896.63
2023-04-26T09:31:41.703Z,95905.41
2023-04-26T09:32:46.662Z,95905.84
2023-04-26T09:33:59.130Z,95899.63
2023-04-26T09:35:00.880Z,95901.16
2023-04-26T09:36:14.810Z,95908.00
2023-04-26T09:37:16.824Z,95911.00
2023-04-26T09:38:19.355Z,95905.84
2023-04-26T09:39:39.996Z,95904.72
2023-04-26T09:40:48.786Z,95906.75
2023-04-26T09:41:50.859Z,95908.25
2023-04-26T09:43:05.424Z,95907.28
2023-04-26T09:44:23.778Z,95903.97
2023-04-26T09:45:27.428Z,95903.22
2023-04-26T09:46:29.277Z,95901.69
2023-04-26T09:47:31.750Z,95902.19
2023-04-26T09:48:35.933Z,95906.97
2023-04-26T09:49:51.754Z,95914.63
2023-04-26T09:50:55.364Z,95910.88
2023-04-26T09:52:01.980Z,95912.97
2023-04-26T09:53:05.484Z,95918.31
2023-04-26T09:54:07.444Z,95913.03
2023-04-26T09:55:12.567Z,95912.69
2023-04-26T09:56:22.102Z,95907.88
2023-04-26T09:57:23.997Z,95913.34
2023-04-26T09:58:25.957Z,95911.53
2023-04-26T09:59:40.017Z,95909.44
2023-04-26T10:00:42.138Z,95912.25
2023-04-26T10:01:43.908Z,95909.75
2023-04-26T10:02:47.001Z,95900.28
2023-04-26T10:03:49.445Z,95906.41
2023-04-26T10:04:53.749Z,95897.75
2023-04-26T10:05:56.767Z,95907.06
2023-04-26T10:06:58.897Z,95906.53
2023-04-26T10:08:01.114Z,95905.00
2023-04-26T10:09:04.433Z,95895.81
2023-04-26T10:10:07.824Z,95895.75
2023-04-26T10:11:12.962Z,95901.28
2023-04-26T10:12:17.044Z,95900.50
2023-04-26T10:13:19.335Z,95901.22
2023-04-26T10:14:21.252Z,95903.47
2023-04-26T10:15:23.453Z,95905.75
2023-04-26T10:16:25.418Z,95900.75
2023-04-26T10:17:27.683Z,95897.28
2023-04-26T10:18:30.087Z,95897.28
2023-04-26T10:19:36.171Z,95891.56
2023-04-26T10:20:42.529Z,95897.56
2023-04-26T10:21:44.868Z,95888.34
2023-04-26T10:22:48.784Z,95885.66
2023-04-26T10:23:50.805Z,95885.91
2023-04-26T10:24:54.537Z,95879.44
2023-04-26T10:25:56.531Z,95884.19
2023-04-26T10:26:59.571Z,95882.09
2023-04-26T10:28:01.582Z,95883.38
2023-04-26T10:29:04.080Z,95883.59
2023-04-26T10:30:07.680Z,95889.38
2023-04-26T10:31:09.546Z,95886.41
2023-04-26T10:32:16.463Z,95886.19
2023-04-26T10:33:19.032Z,95884.00
2023-04-26T10:34:21.843Z,95882.06
2023-04-26T10:35:24.964Z,95886.28
2023-04-26T10:36:28.121Z,95884.22
2023-04-26T10:37:29.933Z,95877.56
2023-04-26T10:38:32.194Z,95877.03
2023-04-26T10:39:33.935Z,95870.94
2023-04-26T10:40:39.168Z,95874.97
2023-04-26T10:41:41.436Z,95873.06
2023-04-26T10:42:43.181Z,95875.66
2023-04-26T10:43:44.985Z,95872.81
2023-04-26T10:44:46.679Z,95866.13
2023-04-26T10:45:49.039Z,95869.78
2023-04-26T10:46:51.631Z,95867.94
2023-04-26T10:48:17.549Z,95869.34
2023-04-26T10:49:25.687Z,95863.75
2023-04-26T10:50:28.143Z,95861.31
2023-04-26T10:51:29.841Z,95870.59
2023-04-26T10:52:31.727Z,95869.63
2023-04-26T10:53:36.096Z,95867.81
2023-04-26T10:54:53.447Z,95867.56
2023-04-26T10:55:55.264Z,95860.44
2023-04-26T10:56:58.036Z,95854.06
2023-04-26T10:57:59.836Z,95864.03
2023-04-26T10:59:18.025Z,95867.16
2023-04-26T11:00:32.298Z,95859.63
2023-04-26T11:01:34.627Z,95861.69
2023-04-26T11:02:55.970Z,95860.88
2023-04-26T11:03:58.328Z,95861.69
2023-04-26T11:05:02.903Z,95867.22
2023-04-26T11:06:09.892Z,95865.13
2023-04-26T11:07:14.092Z,95854.03
2023-04-26T11:08:34.381Z,95848.91
2023-04-26T11:09:40.928Z,95848.97
2023-04-26T11:10:43.724Z,95850.97
2023-04-26T11:11:53.546Z,95855.28
2023-04-26T11:13:03.318Z,95851.44
2023-04-26T11:14:05.702Z,95834.06
2023-04-26T11:15:07.565Z,95833.53
2023-04-26T11:16:10.896Z,95830.75
2023-04-26T11:17:13.408Z,95821.31
2023-04-26T11:18:19.183Z,95822.16
2023-04-26T11:19:20.966Z,95816.34
2023-04-26T11:20:22.943Z,95820.84
2023-04-26T11:21:27.023Z,95814.66
2023-04-26T11:22:29.931Z,95819.22
2023-04-26T11:23:32.383Z,95824.94
2023-04-26T11:24:36.794Z,95829.50
2023-04-26T11:25:42.018Z,95827.69
2023-04-26T11:26:51.631Z,95829.94
2023-04-26T11:28:00.333Z,95823.63
2023-04-26T11:29:03.424Z,95828.25
2023-04-26T11:30:05.832Z,95820.41
2023-04-26T11:31:07.544Z,95820.06
2023-04-26T11:32:10.916Z,95816.69
2023-04-26T11:33:22.218Z,95829.31
2023-04-26T11:34:35.511Z,95823.53
2023-04-26T11:35:38.354Z,95825.47
2023-04-26T11:36:40.078Z,95824.75
2023-04-26T11:37:42.016Z,95826.63
2023-04-26T11:38:43.819Z,95833.69
2023-04-26T11:39:45.700Z,95827.75
2023-04-26T11:40:53.990Z,95821.50
2023-04-26T11:42:06.802Z,95817.28
2023-04-26T11:43:09.405Z,95828.81
2023-04-26T11:44:12.717Z,95823.31
2023-04-26T11:45:17.303Z,95823.66
2023-04-26T11:46:20.983Z,95832.16
2023-04-26T11:47:23.686Z,95824.63
2023-04-26T11:48:25.506Z,95832.50
2023-04-26T11:49:27.493Z,95824.63
2023-04-26T11:50:30.570Z,95827.13
2023-04-26T11:51:32.871Z,95828.94
2023-04-26T11:52:34.503Z,95822.72
2023-04-26T11:53:40.792Z,95829.78
2023-04-26T11:54:44.236Z,95827.00
2023-04-26T11:55:46.207Z,95827.78
2023-04-26T11:56:47.882Z,95831.78
2023-04-26T11:57:50.372Z,95827.66
2023-04-26T11:58:53.185Z,95823.97
2023-04-26T11:59:55.283Z,95833.69
2023-04-26T12:00:59.157Z,95825.97
2023-04-26T12:02:07.250Z,95830.72
2023-04-26T12:03:12.191Z,95828.34
2023-04-26T12:04:14.117Z,95837.28
2023-04-26T12:05:32.353Z,95830.56
2023-04-26T12:06:45.076Z,95823.63
2023-04-26T12:07:53.456Z,95830.84
2023-04-26T12:08:56.979Z,95828.78
2023-04-26T12:10:13.945Z,95827.38
2023-04-26T12:11:17.444Z,95830.91
2023-04-26T12:12:19.370Z,95834.69
2023-04-26T12:13:21.491Z,95834.28
2023-04-26T12:14:23.289Z,95826.91
2023-04-26T12:15:29.173Z,95827.50
2023-04-26T12:16:31.086Z,95836.56
2023-04-26T12:17:33.020Z,95834.06
2023-04-26T12:18:34.923Z,95831.03
2023-04-26T12:19:37.463Z,95833.13
2023-04-26T12:20:41.054Z,95831.03
2023-04-26T12:21:43.622Z,95826.09
2023-04-26T12:23:17.683Z,95830.88
2023-04-26T12:24:24.350Z,95830.88
2023-04-26T12:25:26.093Z,95830.00
2023-04-26T12:26:45.465Z,95829.09
2023-04-26T12:27:47.183Z,95835.63
2023-04-26T12:28:49.161Z,95825.88
2023-04-26T12:29:50.900Z,95830.13
2023-04-26T12:30:52.837Z,95821.81
2023-04-26T12:31:54.574Z,95817.41
2023-04-26T12:33:05.741Z,95814.44
2023-04-26T12:34:17.195Z,95805.41
2023-04-26T12:35:19.175Z,95813.28